Terminal Aerodrome Forecast
Issued by NWS

Home | Current Version | Previous Version | Text Only | Print | Product List | Glossary On
Versions: 1 2 3 4 5 6 7 8 9 10 11 12 13 14 15
000
FTUS44 KOUN 301120
TAFCSM
TAF
KCSM 301120Z 3012/3112 20005KT P6SM VCTS SCT070CB BKN120
      TEMPO 3012/3014 5SM -TSRA BKN050CB
     FM301500 20014KT P6SM SCT250
     FM310000 16013KT P6SM SCT250=

USA.gov is the U.S. government's official web portal to all federal, state and local government web resources and services.